Close

Questo sito utlizza cookie. Può leggere come li usiamo nella nostra Privacy Policy.

Ronchi Tower
Ronchi Tower

From Facebook

METAR & TAF

2022/07/07 09:50 LIPQ 070950Z AUTO 13005KT 090V190 9999 BKN100/// 28/14 Q1016
2022/07/07 06:24 TAF LIPQ 070500Z 0706/0806 08010KT 9999 SCT030 TEMPO 0706/0708 SHRA BECMG 0708/0710 20006KT BECMG 0712/0714 03015KT TEMPO 0714/0718 03015G27KT 4000 TSRA BKN012 BECMG 0718/0720 03005KT
2022/07/07 09:50 LIPZ 070950Z 10007KT 070V130 9999 SCT070 26/15 Q1017 NOSIG
2022/07/07 06:24 TAF TAF LIPZ 070500Z 0706/0812 06010KT 9999 SCT030 BECMG 0708/0710 16012KT BECMG 0713/0715 05015KT TEMPO 0715/0719 05020G32KT 4000 TSRA BKN012 BECMG 0719/0721 36005KT BECMG 0808/0810 17010KT
2022/07/07 09:50 LIPH 070950Z 10004KT 020V180 CAVOK 28/16 Q1017
2022/07/07 06:22 TAF LIPH 070500Z 0706/0806 04010KT 9999 SCT030 BECMG 0711/0713 18010KT BECMG 0713/0715 04015KT TEMPO 0715/0718 04020G32KT 4000 TSRA BKN012 BECMG 0718/0720 36005KT
2022/07/07 09:50 LIRF 070950Z 24011KT 210V270 9999 FEW035 29/23 Q1014 NOSIG
2022/07/07 06:22 TAF LIRF 070500Z 0706/0812 VRB05KT 9999 FEW020 BECMG 0708/0710 24012KT BECMG 0712/0714 31012KT BECMG 0721/0723 01010KT TEMPO 0800/0803 SHRA
2022/07/07 09:50 LIML 070950Z 11007KT 070V160 CAVOK 28/15 Q1017 NOSIG
2022/07/07 06:22 TAF LIML 070500Z 0706/0806 VRB05KT CAVOK BECMG 0716/0718 35015KT
2022/07/07 09:50 EDDM 070950Z AUTO 27007KT 9999 FEW037 17/10 Q1022 TEMPO RA
2022/07/07 06:27 TAF EDDM 070500Z 0706/0812 26010KT CAVOK TEMPO 0713/0717 29015G25KT SHRA SCT012 BKN020CB PROB30 TEMPO 0714/0716 TSRA BECMG 0723/0801 33006KT
2022/07/07 09:50 EGSS 070950Z AUTO 35009KT 9999 OVC024 18/11 Q1029
2022/07/07 06:09 TAF EGSS 070455Z 0706/0812 30008KT 9999 SCT030 BECMG 0706/0709 36010KT PROB30 TEMPO 0706/0708 BKN012 BECMG 0718/0721 16004KT
2022/07/07 09:50 EDDF 070950Z 28013KT 9999 SHRA FEW020 SCT028CB SCT038 18/13 Q1020 BECMG NSW
2022/07/07 06:27 TAF TAF EDDF 070500Z 0706/0812 20004KT CAVOK BECMG 0706/0708 24010KT BECMG 0709/0712 30012KT PROB30 TEMPO 0709/0714 30015G25KT SHRA BKN030CB BECMG 0719/0722 32007KT

FlightRadar24

Radar Meteo

Traffic data

Agosto 2018

Passeggeri: 63892-12,9% (rank: 23)
Nazionali 34490 -19,8%
Internazionali 29193 -3,0%

Movimenti: 1307+11,7% (rank: 24)
Tot commerciale 556 -7,2%
Aviazione generale 751 +31,5%

Cargo (tons): 20,6+62,5% (rank: 21)

Gennaio - Agosto 2018

Passeggeri: 507438-3,5% (rank: 23)
Nazionali 322655 -4,9%
Internazionali 182927 -0,7%

Movimenti: 10366-4,25 (rank: 22)
Tot commerciale 5328 -11,0%
Aviazione generale 5038 +4,2%

Cargo (tons): 299,2+61,9% (rank: 20)

Photo

Bombardier BD-700 Global 5000
Bombardier BD-700 Global 5000
Distinct views: 19
Reims F152
Reims F152
Distinct views: 89
Reims F152 II
Reims F152 II
Distinct views: 210
Gulfstream Aerospace Gulfstream IV
Gulfstream Aerospace Gulfstream IV
Total views: 9530